Time;durP1;ratioP1;P1;durP2;ratioP2;P2;SDS_P1;SDS_P2;PMS_P1;PMS_P2;Temp;Humidity;BMP_temperature;BMP_pressure;BME280_temperature;BME280_humidity;BME280_pressure;Samples;Min_cycle;Max_cycle;Signal;HPM_P1;HPM_P2
2022/10/20 00:00:56;;;;;;;;;;;;;;;11.38;100.00;95435.59;5062847;28;19928;-67
2022/10/20 00:03:24;;;;;;;;;;;;;;;11.41;100.00;95441.16;5061374;28;19935;-67
2022/10/20 00:05:51;;;;;;;;;;;;;;;11.48;100.00;95439.25;5062814;28;20531;-66
2022/10/20 00:08:17;;;;;;;;;;;;;;;11.64;100.00;95435.22;5060336;28;20019;-66
2022/10/20 00:10:54;;;;;;;;;;;;;;;11.61;100.00;95430.47;5059889;28;20664;-66
2022/10/20 00:13:21;;;;;;;;;;;;;;;11.57;100.00;95439.75;5059032;28;19926;-66
2022/10/20 00:15:48;;;;;;;;;;;;;;;11.60;100.00;95444.53;5063086;28;20452;-66
2022/10/20 00:18:15;;;;;;;;;;;;;;;11.63;100.00;95449.31;5058697;28;20716;-67
2022/10/20 00:20:42;;;;;;;;;;;;;;;11.61;100.00;95445.31;5058326;28;19920;-66
2022/10/20 00:23:09;;;;;;;;;;;;;;;11.55;100.00;95441.78;5062726;28;20368;-65
2022/10/20 00:25:36;;;;;;;;;;;;;;;11.53;100.00;95438.59;5061311;28;19936;-66
2022/10/20 00:28:02;;;;;;;;;;;;;;;11.52;100.00;95431.78;5062692;28;19928;-67
2022/10/20 00:30:29;;;;;;;;;;;;;;;11.44;100.00;95424.28;5057995;28;19994;-67
2022/10/20 00:32:56;;;;;;;;;;;;;;;11.54;100.00;95414.13;5062597;28;19986;-67
2022/10/20 00:35:22;;;;;;;;;;;;;;;11.38;100.00;95414.72;5058651;28;20015;-67
2022/10/20 00:37:49;;;;;;;;;;;;;;;11.38;100.00;95415.53;5060269;28;20372;-67
2022/10/20 00:40:15;;;;;;;;;;;;;;;11.37;100.00;95419.16;5059162;28;20509;-67
2022/10/20 00:42:46;;;;;;;;;;;;;;;11.35;100.00;95420.41;5060694;28;19933;-66
2022/10/20 00:45:16;;;;;;;;;;;;;;;11.31;100.00;95414.00;5060246;28;19928;-67
2022/10/20 00:47:46;;;;;;;;;;;;;;;11.20;100.00;95408.56;5060660;28;20401;-66
2022/10/20 00:50:16;;;;;;;;;;;;;;;11.22;100.00;95410.94;5061476;28;19932;-67
2022/10/20 00:52:44;;;;;;;;;;;;;;;11.18;100.00;95426.22;5060293;28;20010;-67
2022/10/20 00:55:13;;;;;;;;;;;;;;;11.15;100.00;95426.66;5063266;28;21014;-66
2022/10/20 00:57:41;;;;;;;;;;;;;;;11.23;100.00;95423.72;5059652;28;20031;-67
2022/10/20 01:00:08;;;;;;;;;;;;;;;11.19;100.00;95422.59;5066976;28;20031;-67
2022/10/20 01:02:35;;;;;;;;;;;;;;;11.15;100.00;95421.44;5062071;28;19924;-66
2022/10/20 01:05:01;;;;;;;;;;;;;;;11.24;100.00;95422.72;5069210;28;19936;-66
2022/10/20 01:07:28;;;;;;;;;;;;;;;11.38;100.00;95425.16;5063595;28;19931;-66
2022/10/20 01:09:55;;;;;;;;;;;;;;;11.32;100.00;95415.63;5069740;28;19936;-66
2022/10/20 01:12:45;;;;;;;;;;;;;;;11.39;100.00;95421.53;5067207;28;19940;-67
2022/10/20 01:15:27;;;;;;;;;;;;;;;11.39;100.00;95426.75;5066394;28;20693;-67
2022/10/20 01:18:03;;;;;;;;;;;;;;;11.32;100.00;95428.66;5064818;28;20668;-67
2022/10/20 01:20:35;;;;;;;;;;;;;;;11.34;100.00;95424.00;5068248;28;20049;-67
2022/10/20 01:23:17;;;;;;;;;;;;;;;11.27;100.00;95414.47;5064445;28;19935;-66
2022/10/20 01:25:46;;;;;;;;;;;;;;;11.19;100.00;95417.38;5066001;28;19963;-66
2022/10/20 01:28:21;;;;;;;;;;;;;;;11.12;100.00;95416.66;5061906;28;19990;-67
2022/10/20 01:30:52;;;;;;;;;;;;;;;11.22;100.00;95416.94;5060535;28;19991;-67
2022/10/20 01:33:38;;;;;;;;;;;;;;;11.15;100.00;95411.00;5061733;28;20761;-67
2022/10/20 01:36:31;;;;;;;;;;;;;;;10.99;100.00;95411.63;5065502;28;20011;-66
2022/10/20 01:38:58;;;;;;;;;;;;;;;10.82;100.00;95399.19;5055563;28;20041;-67
2022/10/20 01:41:37;;;;;;;;;;;;;;;10.65;100.00;95411.19;5058671;28;19932;-67
2022/10/20 01:44:07;;;;;;;;;;;;;;;10.56;100.00;95417.69;5055350;28;19928;-66
2022/10/20 01:46:34;;;;;;;;;;;;;;;10.45;100.00;95411.38;5062739;28;20094;-67
2022/10/20 01:49:02;;;;;;;;;;;;;;;10.47;100.00;95425.00;5058951;28;19945;-66
2022/10/20 01:51:30;;;;;;;;;;;;;;;10.25;100.00;95432.38;5057707;28;19924;-67
2022/10/20 01:53:57;;;;;;;;;;;;;;;10.08;100.00;95427.72;5055368;28;19975;-67
2022/10/20 01:56:32;;;;;;;;;;;;;;;10.07;100.00;95431.31;5058123;28;20217;-67
2022/10/20 01:59:10;;;;;;;;;;;;;;;10.03;100.00;95429.34;5059221;28;20015;-66
2022/10/20 02:01:37;;;;;;;;;;;;;;;9.88;100.00;95434.84;5057648;28;20035;-66
2022/10/20 02:04:07;;;;;;;;;;;;;;;9.75;100.00;95426.13;5054883;28;20416;-67
2022/10/20 02:06:52;;;;;;;;;;;;;;;9.70;100.00;95431.16;5057870;28;19983;-66
2022/10/20 02:09:26;;;;;;;;;;;;;;;9.80;100.00;95435.91;5059861;28;19997;-66
2022/10/20 02:12:02;;;;;;;;;;;;;;;9.72;100.00;95434.38;5058291;28;19939;-67
2022/10/20 02:14:31;;;;;;;;;;;;;;;9.62;100.00;95434.03;5060318;28;19932;-67
2022/10/20 02:17:03;;;;;;;;;;;;;;;9.59;100.00;95442.25;5056222;28;20039;-67
2022/10/20 02:19:33;;;;;;;;;;;;;;;9.54;100.00;95445.50;5059184;28;19925;-66
2022/10/20 02:22:03;;;;;;;;;;;;;;;9.44;100.00;95446.94;5060393;28;19925;-66
2022/10/20 02:24:33;;;;;;;;;;;;;;;9.46;100.00;95444.94;5089309;28;19928;-67
2022/10/20 02:27:01;;;;;;;;;;;;;;;9.45;100.00;95451.13;5056686;28;20344;-66
2022/10/20 02:29:29;;;;;;;;;;;;;;;9.45;100.00;95454.50;5060305;28;19964;-66
2022/10/20 02:31:57;;;;;;;;;;;;;;;9.56;100.00;95461.69;5057665;28;21393;-66
2022/10/20 02:34:26;;;;;;;;;;;;;;;9.56;100.00;95450.44;5061035;28;20012;-67
2022/10/20 02:36:57;;;;;;;;;;;;;;;9.54;100.00;95462.88;5054319;28;19924;-67
2022/10/20 02:39:24;;;;;;;;;;;;;;;9.60;100.00;95456.84;5058365;28;19963;-67
2022/10/20 02:41:51;;;;;;;;;;;;;;;9.49;100.00;95454.91;5063640;28;20058;-67
2022/10/20 02:44:17;;;;;;;;;;;;;;;9.40;100.00;95459.56;5065712;28;19932;-66
2022/10/20 02:46:45;;;;;;;;;;;;;;;9.31;100.00;95463.38;5065743;28;19935;-67
2022/10/20 02:49:11;;;;;;;;;;;;;;;9.25;100.00;95466.81;5061819;28;19936;-66
2022/10/20 02:51:38;;;;;;;;;;;;;;;9.19;100.00;95465.84;5060564;28;19965;-66
2022/10/20 02:54:04;;;;;;;;;;;;;;;9.10;100.00;95469.69;5059574;28;19932;-66
2022/10/20 02:56:31;;;;;;;;;;;;;;;8.99;100.00;95477.09;5060569;28;20393;-66
2022/10/20 02:58:57;;;;;;;;;;;;;;;8.93;100.00;95472.75;5055828;28;20699;-66
2022/10/20 03:01:24;;;;;;;;;;;;;;;8.56;100.00;95419.69;5061446;28;20016;-67
2022/10/20 03:03:54;;;;;;;;;;;;;;;8.83;100.00;95467.16;5058527;28;20621;-67
2022/10/20 03:06:21;;;;;;;;;;;;;;;8.76;100.00;95474.16;5065659;28;19936;-67
2022/10/20 03:08:47;;;;;;;;;;;;;;;8.63;100.00;95471.63;5063246;28;20573;-66
2022/10/20 03:11:14;;;;;;;;;;;;;;;8.56;100.00;95471.63;5060570;28;19950;-66
2022/10/20 03:13:41;;;;;;;;;;;;;;;8.47;100.00;95468.44;5064163;28;21152;-66
2022/10/20 03:16:07;;;;;;;;;;;;;;;8.43;100.00;95472.44;5062152;28;19928;-67
2022/10/20 03:18:34;;;;;;;;;;;;;;;8.39;100.00;95466.00;5063156;28;19928;-67
2022/10/20 03:21:00;;;;;;;;;;;;;;;8.27;100.00;95478.00;5061759;28;20035;-67
2022/10/20 03:23:27;;;;;;;;;;;;;;;8.21;100.00;95475.22;5066263;28;19979;-67
2022/10/20 03:25:59;;;;;;;;;;;;;;;8.14;100.00;95474.41;5061401;28;19932;-67
2022/10/20 03:28:26;;;;;;;;;;;;;;;8.11;100.00;95477.38;5064305;28;20047;-67
2022/10/20 03:30:53;;;;;;;;;;;;;;;8.01;100.00;95474.38;5062428;28;19932;-67
2022/10/20 03:33:19;;;;;;;;;;;;;;;7.96;100.00;95479.38;5063317;28;19936;-67
2022/10/20 03:35:46;;;;;;;;;;;;;;;7.92;100.00;95475.56;5062163;28;19980;-67
2022/10/20 03:38:12;;;;;;;;;;;;;;;7.88;100.00;95475.16;5061527;28;19929;-67
2022/10/20 03:40:39;;;;;;;;;;;;;;;7.85;100.00;95481.56;5065519;28;19933;-68
2022/10/20 03:43:05;;;;;;;;;;;;;;;7.97;100.00;95488.75;5067980;28;20017;-67
2022/10/20 03:45:32;;;;;;;;;;;;;;;7.97;100.00;95488.75;5067469;28;20051;-67
2022/10/20 03:47:59;;;;;;;;;;;;;;;8.10;100.00;95493.16;5065983;28;19947;-68
2022/10/20 03:50:25;;;;;;;;;;;;;;;8.21;100.00;95500.34;5069093;28;19924;-67
2022/10/20 03:52:52;;;;;;;;;;;;;;;8.28;100.00;95495.16;5065620;28;20644;-67
2022/10/20 03:55:18;;;;;;;;;;;;;;;8.36;100.00;95492.38;5069938;28;19986;-67
2022/10/20 03:57:45;;;;;;;;;;;;;;;8.36;100.00;95492.38;5064263;28;19928;-67
2022/10/20 04:00:12;;;;;;;;;;;;;;;8.38;100.00;95498.16;5070471;28;21875;-67
2022/10/20 04:02:43;;;;;;;;;;;;;;;8.42;100.00;95491.59;5068377;28;20631;-67
2022/10/20 04:05:11;;;;;;;;;;;;;;;8.39;100.00;95491.94;5066028;28;20470;-68
2022/10/20 04:07:40;;;;;;;;;;;;;;;8.45;100.00;95486.00;5065463;28;19929;-67
2022/10/20 04:10:07;;;;;;;;;;;;;;;8.39;100.00;95484.16;5062518;28;19928;-67
2022/10/20 04:12:34;;;;;;;;;;;;;;;8.35;100.00;95495.94;5062829;28;20030;-67
2022/10/20 04:15:02;;;;;;;;;;;;;;;8.26;100.00;95489.38;5059221;28;20921;-68
2022/10/20 04:17:28;;;;;;;;;;;;;;;8.06;100.00;95487.56;5060550;28;20039;-67
2022/10/20 04:19:55;;;;;;;;;;;;;;;8.00;100.00;95494.34;5057553;28;19924;-68
2022/10/20 04:22:22;;;;;;;;;;;;;;;7.93;100.00;95500.53;5062347;28;20410;-67
2022/10/20 04:24:48;;;;;;;;;;;;;;;7.88;100.00;95495.13;5057764;28;20001;-67
2022/10/20 04:27:15;;;;;;;;;;;;;;;7.91;100.00;95494.75;5061115;28;19932;-67
2022/10/20 04:29:42;;;;;;;;;;;;;;;7.81;100.00;95500.31;5056334;28;19928;-68
2022/10/20 04:32:08;;;;;;;;;;;;;;;7.72;100.00;95497.09;5061283;28;19929;-68
2022/10/20 04:34:35;;;;;;;;;;;;;;;7.66;100.00;95495.28;5092461;27;19938;-68
2022/10/20 04:37:02;;;;;;;;;;;;;;;7.58;100.00;95490.28;5057346;28;19924;-66
2022/10/20 04:39:29;;;;;;;;;;;;;;;7.60;100.00;95503.84;5058770;28;19924;-67
2022/10/20 04:41:56;;;;;;;;;;;;;;;7.61;100.00;95495.06;5057805;28;20769;-67
2022/10/20 04:44:22;;;;;;;;;;;;;;;7.62;100.00;95500.06;5059768;28;19955;-67
2022/10/20 04:46:49;;;;;;;;;;;;;;;7.64;100.00;95505.84;5059996;28;19952;-67
2022/10/20 04:49:15;;;;;;;;;;;;;;;7.62;100.00;95507.06;5069175;28;19982;-69
2022/10/20 04:51:42;;;;;;;;;;;;;;;7.66;100.00;95503.06;5056733;28;19990;-69
2022/10/20 04:54:12;;;;;;;;;;;;;;;7.69;100.00;95507.88;5066214;28;19956;-72
2022/10/20 04:56:39;;;;;;;;;;;;;;;7.70;100.00;95514.63;5064049;28;20674;-70
2022/10/20 04:59:06;;;;;;;;;;;;;;;7.74;100.00;95520.22;5065721;28;19934;-68
2022/10/20 05:01:38;;;;;;;;;;;;;;;7.70;100.00;95514.63;5062646;28;20039;-68
2022/10/20 05:04:04;;;;;;;;;;;;;;;7.71;100.00;95516.25;5067325;28;19936;-66
2022/10/20 05:06:33;;;;;;;;;;;;;;;7.74;100.00;95521.06;5063936;28;20005;-68
2022/10/20 05:09:01;;;;;;;;;;;;;;;7.81;100.00;95523.63;5059723;28;20368;-67
2022/10/20 05:11:29;;;;;;;;;;;;;;;7.92;100.00;95532.63;5064454;28;19928;-67
2022/10/20 05:13:56;;;;;;;;;;;;;;;7.89;100.00;95527.88;5065022;28;20009;-67
2022/10/20 05:16:23;;;;;;;;;;;;;;;7.94;100.00;95546.22;5065307;28;20703;-67
2022/10/20 05:18:52;;;;;;;;;;;;;;;7.98;100.00;95537.06;5063139;27;19920;-66
2022/10/20 05:21:20;;;;;;;;;;;;;;;8.00;100.00;95535.06;5068317;28;20016;-67
2022/10/20 05:23:47;;;;;;;;;;;;;;;8.11;100.00;95534.47;5065229;28;20031;-67
2022/10/20 05:26:15;;;;;;;;;;;;;;;8.17;100.00;95549.22;5065572;28;19932;-67
2022/10/20 05:28:43;;;;;;;;;;;;;;;8.28;100.00;95547.06;5058547;28;20019;-67
2022/10/20 05:31:10;;;;;;;;;;;;;;;8.39;100.00;95551.66;5059576;28;20390;-67
2022/10/20 05:33:37;;;;;;;;;;;;;;;8.46;100.00;95560.28;5057681;28;19925;-68
2022/10/20 05:36:07;;;;;;;;;;;;;;;8.54;100.00;95561.91;5055888;28;19933;-67
2022/10/20 05:38:35;;;;;;;;;;;;;;;8.61;100.00;95573.88;5057030;28;19981;-68
2022/10/20 05:41:21;;;;;;;;;;;;;;;8.74;100.00;95582.66;5064105;28;20393;-67
2022/10/20 05:43:49;;;;;;;;;;;;;;;8.76;100.00;95580.66;5066649;28;19981;-67
2022/10/20 05:46:16;;;;;;;;;;;;;;;8.87;100.00;95577.44;5059666;28;20015;-67
2022/10/20 05:48:43;;;;;;;;;;;;;;;8.91;100.00;95583.84;5063595;28;20604;-67
2022/10/20 05:51:11;;;;;;;;;;;;;;;8.95;100.00;95585.03;5063931;28;19927;-67
2022/10/20 05:53:41;;;;;;;;;;;;;;;9.06;100.00;95590.63;5060956;28;19925;-67
2022/10/20 05:56:09;;;;;;;;;;;;;;;9.14;100.00;95611.19;5062654;28;19928;-73
2022/10/20 05:58:36;;;;;;;;;;;;;;;9.23;100.00;95606.59;5064228;28;19933;-76
2022/10/20 06:01:15;;;;;;;;;;;;;;;9.35;100.00;95616.16;5094442;27;20590;-71
2022/10/20 06:03:45;;;;;;;;;;;;;;;9.46;100.00;95616.53;5070175;28;19928;-70
2022/10/20 06:06:13;;;;;;;;;;;;;;;9.49;100.00;95622.13;5058626;28;20598;-70
2022/10/20 06:08:39;;;;;;;;;;;;;;;9.49;100.00;95624.72;5064740;28;19966;-70
2022/10/20 06:11:07;;;;;;;;;;;;;;;9.55;100.00;95633.50;5059992;28;20494;-70
2022/10/20 06:13:34;;;;;;;;;;;;;;;9.64;100.00;95632.28;5058482;28;19928;-70
2022/10/20 06:16:08;;;;;;;;;;;;;;;9.74;100.00;95632.66;5057216;28;19990;-70
2022/10/20 06:18:37;;;;;;;;;;;;;;;9.75;100.00;95642.03;5059964;28;19936;-70
2022/10/20 06:21:05;;;;;;;;;;;;;;;9.79;100.00;95652.03;5059370;28;19947;-70
2022/10/20 06:23:32;;;;;;;;;;;;;;;9.80;100.00;95645.84;5057711;28;19990;-68
2022/10/20 06:26:02;;;;;;;;;;;;;;;9.84;100.00;95654.84;5057454;28;20368;-68
2022/10/20 06:28:30;;;;;;;;;;;;;;;9.86;100.00;95652.81;5060203;28;19956;-70
2022/10/20 06:30:57;;;;;;;;;;;;;;;9.95;100.00;95657.56;5057342;28;19981;-70
2022/10/20 06:33:24;;;;;;;;;;;;;;;10.07;100.00;95660.34;5053861;28;19997;-70
2022/10/20 06:35:51;;;;;;;;;;;;;;;10.10;100.00;95670.34;5062470;28;20363;-76
2022/10/20 06:38:18;;;;;;;;;;;;;;;10.24;100.00;95659.88;5086595;28;20440;-76
2022/10/20 06:40:45;;;;;;;;;;;;;;;10.30;100.00;95669.47;5061311;28;20374;-74
2022/10/20 06:43:12;;;;;;;;;;;;;;;10.27;100.00;95675.88;5059935;28;19935;-72
2022/10/20 06:45:39;;;;;;;;;;;;;;;10.29;100.00;95665.25;5061883;28;19924;-71
2022/10/20 06:48:05;;;;;;;;;;;;;;;10.29;100.00;95667.84;5061713;28;19933;-70
2022/10/20 06:50:32;;;;;;;;;;;;;;;10.48;100.00;95672.19;5062480;28;20044;-69
2022/10/20 06:52:59;;;;;;;;;;;;;;;10.55;100.00;95671.34;5060045;28;19928;-70
2022/10/20 06:55:26;;;;;;;;;;;;;;;10.70;100.00;95677.06;5060501;28;19933;-70
2022/10/20 06:57:52;;;;;;;;;;;;;;;10.78;100.00;95674.19;5062063;28;19928;-70
2022/10/20 07:00:19;;;;;;;;;;;;;;;10.96;100.00;95681.28;5058445;28;19958;-70
2022/10/20 07:02:45;;;;;;;;;;;;;;;10.99;100.00;95682.69;5061247;28;19932;-70
2022/10/20 07:05:12;;;;;;;;;;;;;;;11.06;100.00;95678.22;5059567;28;19993;-70
2022/10/20 07:07:40;;;;;;;;;;;;;;;11.13;100.00;95678.97;5064230;28;19932;-70
2022/10/20 07:10:07;;;;;;;;;;;;;;;11.18;100.00;95676.53;5059607;28;19924;-70
2022/10/20 07:12:33;;;;;;;;;;;;;;;11.38;100.00;95685.97;5069436;28;20010;-70
2022/10/20 07:15:00;;;;;;;;;;;;;;;11.52;100.00;95682.22;5061791;28;21225;-73
2022/10/20 07:17:27;;;;;;;;;;;;;;;11.70;100.00;95683.25;5066902;28;19971;-68
2022/10/20 07:19:54;;;;;;;;;;;;;;;11.79;100.00;95676.72;5061852;28;19985;-68
2022/10/20 07:22:22;;;;;;;;;;;;;;;11.74;100.00;95689.63;5061713;28;19932;-68
2022/10/20 07:24:48;;;;;;;;;;;;;;;11.71;100.00;95679.66;5059274;28;19928;-68
2022/10/20 07:27:15;;;;;;;;;;;;;;;11.96;100.00;95683.00;5061715;28;20684;-68
2022/10/20 07:29:42;;;;;;;;;;;;;;;11.92;100.00;95671.41;5064424;27;19929;-67
2022/10/20 07:32:08;;;;;;;;;;;;;;;11.94;100.00;95682.44;5063622;28;19920;-67
2022/10/20 07:34:35;;;;;;;;;;;;;;;11.91;100.00;95676.84;5064158;28;20035;-66
2022/10/20 07:37:03;;;;;;;;;;;;;;;11.97;100.00;95678.56;5053534;28;19982;-68
2022/10/20 07:39:32;;;;;;;;;;;;;;;12.17;100.00;95673.13;5064529;28;19935;-69
2022/10/20 07:41:58;;;;;;;;;;;;;;;12.22;100.00;95675.88;5062028;28;20402;-77
2022/10/20 07:44:25;;;;;;;;;;;;;;;12.28;100.00;95685.44;5062155;28;19928;-76
2022/10/20 07:46:52;;;;;;;;;;;;;;;12.46;100.00;95681.19;5064840;28;20089;-75
2022/10/20 07:49:19;;;;;;;;;;;;;;;12.43;100.00;95672.78;5066419;27;19928;-75
2022/10/20 07:52:06;;;;;;;;;;;;;;;12.43;100.00;95675.41;5058971;28;20046;-75
2022/10/20 07:54:32;;;;;;;;;;;;;;;12.66;100.00;95660.81;5056551;27;20073;-75
2022/10/20 07:56:59;;;;;;;;;;;;;;;12.50;100.00;95682.38;5093189;27;20018;-72
2022/10/20 07:59:27;;;;;;;;;;;;;;;12.66;100.00;95663.44;5058700;28;19946;-69
2022/10/20 08:01:54;;;;;;;;;;;;;;;12.69;100.00;95670.81;5062545;27;19936;-69
2022/10/20 08:04:24;;;;;;;;;;;;;;;12.65;100.00;95659.22;5056965;28;19964;-70
2022/10/20 08:06:51;;;;;;;;;;;;;;;12.82;100.00;95670.63;5061379;27;20021;-70
2022/10/20 08:09:18;;;;;;;;;;;;;;;12.94;100.00;95669.84;5057510;28;19928;-71
2022/10/20 08:11:44;;;;;;;;;;;;;;;12.91;100.00;95683.38;5058306;28;19924;-71
2022/10/20 08:14:11;;;;;;;;;;;;;;;12.89;100.00;95669.72;5061326;28;19939;-70
2022/10/20 08:16:38;;;;;;;;;;;;;;;12.99;100.00;95680.44;5066455;27;19970;-70
2022/10/20 08:19:17;;;;;;;;;;;;;;;13.18;100.00;95674.09;5060764;28;19930;-75
2022/10/20 08:21:50;;;;;;;;;;;;;;;13.42;100.00;95668.91;5063020;28;19928;-72
2022/10/20 08:24:22;;;;;;;;;;;;;;;13.42;100.00;95663.69;5062377;28;19935;-75
2022/10/20 08:26:49;;;;;;;;;;;;;;;13.63;100.00;95674.56;5063954;28;19929;-75
2022/10/20 08:29:16;;;;;;;;;;;;;;;13.76;100.00;95669.13;5062383;28;19968;-74
2022/10/20 08:31:43;;;;;;;;;;;;;;;13.77;100.00;95665.47;5062907;28;19981;-69
2022/10/20 08:34:10;;;;;;;;;;;;;;;13.72;100.00;95673.19;5062758;28;19935;-69
2022/10/20 08:36:36;;;;;;;;;;;;;;;13.67;100.00;95662.66;5061726;28;19956;-70
2022/10/20 08:39:04;;;;;;;;;;;;;;;13.78;100.00;95682.78;5060726;28;19929;-71
2022/10/20 08:41:33;;;;;;;;;;;;;;;13.82;100.00;95657.72;5057429;28;19924;-67
2022/10/20 08:44:31;;;;;;;;;;;;;;;13.79;100.00;95663.41;5060923;28;19931;-67
2022/10/20 08:47:00;;;;;;;;;;;;;;;13.97;100.00;95667.69;5058004;28;19932;-67
2022/10/20 08:49:29;;;;;;;;;;;;;;;14.01;100.00;95670.66;5061906;28;20017;-67
2022/10/20 08:51:57;;;;;;;;;;;;;;;14.19;100.00;95667.06;5056917;28;19932;-65
2022/10/20 08:54:24;;;;;;;;;;;;;;;14.30;100.00;95664.41;5063104;28;20014;-68
2022/10/20 08:56:51;;;;;;;;;;;;;;;14.39;100.00;95661.44;5058523;28;19991;-70
2022/10/20 08:59:25;;;;;;;;;;;;;;;14.33;100.00;95658.72;5065481;28;20016;-69
2022/10/20 09:01:54;;;;;;;;;;;;;;;14.57;100.00;95663.84;5058985;28;19957;-75
2022/10/20 09:04:23;;;;;;;;;;;;;;;14.58;97.34;95670.72;5057390;28;20766;-71
2022/10/20 09:07:02;;;;;;;;;;;;;;;14.66;96.35;95683.44;5057099;28;19982;-70
2022/10/20 09:09:29;;;;;;;;;;;;;;;14.80;94.93;95656.91;5057175;28;19928;-71
2022/10/20 09:12:02;;;;;;;;;;;;;;;14.86;92.20;95661.22;5057943;28;20059;-70
2022/10/20 09:14:31;;;;;;;;;;;;;;;14.76;93.51;95672.34;5059262;28;19951;-70
2022/10/20 09:16:58;;;;;;;;;;;;;;;14.91;91.26;95659.50;5057667;28;19954;-71
2022/10/20 09:19:26;;;;;;;;;;;;;;;14.97;89.66;95673.47;5057497;28;19946;-68
2022/10/20 09:21:57;;;;;;;;;;;;;;;14.99;87.81;95670.63;5059493;28;20027;-68
2022/10/20 09:24:26;;;;;;;;;;;;;;;15.04;87.07;95671.50;5055203;28;19932;-67
2022/10/20 09:26:53;;;;;;;;;;;;;;;15.31;88.22;95673.47;5058589;28;19951;-68
2022/10/20 09:29:44;;;;;;;;;;;;;;;15.30;84.92;95671.88;5055848;28;19928;-68
2022/10/20 09:32:19;;;;;;;;;;;;;;;15.39;83.62;95675.69;5060603;28;19932;-68
2022/10/20 09:35:23;;;;;;;;;;;;;;;15.42;82.68;95680.47;5054435;28;19935;-69
2022/10/20 09:38:21;;;;;;;;;;;;;;;15.55;83.71;95668.81;5058768;28;20575;-68
2022/10/20 09:41:00;;;;;;;;;;;;;;;15.63;83.22;95670.28;5076578;28;20650;-69
2022/10/20 09:43:26;;;;;;;;;;;;;;;15.80;80.87;95670.25;5060086;28;20019;-69
2022/10/20 09:45:55;;;;;;;;;;;;;;;15.78;80.57;95673.13;5056342;28;20600;-69
2022/10/20 09:48:25;;;;;;;;;;;;;;;15.62;81.09;95666.81;5060008;28;20544;-68
2022/10/20 09:50:54;;;;;;;;;;;;;;;15.86;79.75;95670.09;5056184;28;19940;-68
2022/10/20 09:53:31;;;;;;;;;;;;;;;15.88;78.71;95661.94;5060853;28;19958;-68
2022/10/20 09:55:58;;;;;;;;;;;;;;;15.79;77.29;95674.72;5056515;28;19924;-68
2022/10/20 09:58:38;;;;;;;;;;;;;;;15.82;77.08;95673.44;5059899;28;19928;-68
2022/10/20 10:01:15;;;;;;;;;;;;;;;15.79;77.70;95652.88;5054879;28;19936;-68
2022/10/20 10:03:43;;;;;;;;;;;;;;;15.83;77.27;95654.78;5061531;28;19928;-68
2022/10/20 10:06:27;;;;;;;;;;;;;;;15.85;76.48;95660.59;5060127;28;19982;-67
2022/10/20 10:08:55;;;;;;;;;;;;;;;16.14;74.58;95660.41;5066044;28;19959;-66
2022/10/20 10:11:23;;;;;;;;;;;;;;;16.20;76.77;95654.16;5058479;28;20014;-66
2022/10/20 10:13:51;;;;;;;;;;;;;;;16.14;75.84;95649.91;5065251;28;19989;-67
2022/10/20 10:16:19;;;;;;;;;;;;;;;16.09;76.09;95652.47;5064208;28;20578;-66
2022/10/20 10:18:54;;;;;;;;;;;;;;;16.02;73.73;95651.88;5062399;28;20379;-67
2022/10/20 10:21:21;;;;;;;;;;;;;;;15.90;73.77;95653.81;5059980;28;19925;-67
2022/10/20 10:24:00;;;;;;;;;;;;;;;15.84;74.26;95645.88;5058032;28;20027;-66
2022/10/20 10:26:41;;;;;;;;;;;;;;;15.97;73.35;95655.25;5058594;28;20582;-67
2022/10/20 10:29:15;;;;;;;;;;;;;;;16.24;71.77;95643.97;5057499;28;19946;-66
2022/10/20 10:31:49;;;;;;;;;;;;;;;16.35;69.57;95655.38;5057122;28;19924;-66
2022/10/20 10:34:15;;;;;;;;;;;;;;;16.45;69.61;95642.34;5057756;28;19934;-67
2022/10/20 10:36:42;;;;;;;;;;;;;;;16.57;69.00;95637.72;5060537;28;19928;-67
2022/10/20 10:39:13;;;;;;;;;;;;;;;16.66;67.39;95626.78;5056268;28;20610;-67
2022/10/20 10:42:03;;;;;;;;;;;;;;;16.85;66.16;95641.16;5064968;28;20436;-72
2022/10/20 10:44:32;;;;;;;;;;;;;;;16.74;63.95;95639.47;5061963;28;19935;-72
2022/10/20 10:47:22;;;;;;;;;;;;;;;16.56;63.25;95633.50;5064850;28;19935;-72
2022/10/20 10:49:52;;;;;;;;;;;;;;;16.81;62.58;95632.16;5056018;28;19932;-72
2022/10/20 10:52:35;;;;;;;;;;;;;;;16.59;60.38;95635.66;5058708;28;20019;-72
2022/10/20 10:55:02;;;;;;;;;;;;;;;16.58;60.91;95623.56;5068482;28;19955;-75
2022/10/20 10:57:31;;;;;;;;;;;;;;;16.61;60.79;95611.72;5068344;28;19936;-74
2022/10/20 10:59:59;;;;;;;;;;;;;;;16.78;57.53;95627.38;5062535;28;19928;-74
2022/10/20 11:02:36;;;;;;;;;;;;;;;16.56;59.32;95603.78;5068154;28;19924;-74
2022/10/20 11:05:12;;;;;;;;;;;;;;;16.68;58.55;95608.91;5058779;28;19928;-75
2022/10/20 11:07:50;;;;;;;;;;;;;;;16.73;57.75;95608.97;5067702;28;19989;-75
2022/10/20 11:10:16;;;;;;;;;;;;;;;17.12;57.86;95600.84;5058658;28;19935;-75
2022/10/20 11:13:04;;;;;;;;;;;;;;;16.56;57.89;95594.06;5060943;28;20441;-68
2022/10/20 11:16:09;;;;;;;;;;;;;;;16.69;57.60;95599.97;5062695;28;19928;-73
2022/10/20 11:18:38;;;;;;;;;;;;;;;16.62;58.21;95595.72;5063933;28;19951;-72
2022/10/20 11:21:05;;;;;;;;;;;;;;;16.69;57.77;95592.88;5081758;28;19939;-73
2022/10/20 11:23:31;;;;;;;;;;;;;;;16.77;56.13;95589.78;5074178;28;20009;-73
2022/10/20 11:26:06;;;;;;;;;;;;;;;16.66;56.75;95603.09;5064541;28;19994;-73
2022/10/20 11:28:43;;;;;;;;;;;;;;;16.98;55.95;95590.75;5064215;28;19935;-73
2022/10/20 11:31:25;;;;;;;;;;;;;;;17.23;56.02;95581.44;5067291;28;19967;-72
2022/10/20 11:34:15;;;;;;;;;;;;;;;17.62;53.43;95582.97;5104087;27;19958;-73
2022/10/20 11:36:59;;;;;;;;;;;;;;;17.34;52.33;95591.00;5051763;28;19932;-73
2022/10/20 11:39:36;;;;;;;;;;;;;;;17.35;52.76;95579.41;5071890;28;19928;-72
2022/10/20 11:42:29;;;;;;;;;;;;;;;17.18;53.36;95571.69;5066984;28;20034;-73
2022/10/20 11:44:58;;;;;;;;;;;;;;;17.45;53.10;95567.31;5094530;27;19951;-73
2022/10/20 11:47:37;;;;;;;;;;;;;;;17.56;52.13;95553.19;5064558;28;19939;-73
2022/10/20 11:50:09;;;;;;;;;;;;;;;17.58;51.26;95572.94;5069831;28;19928;-73
2022/10/20 11:52:36;;;;;;;;;;;;;;;17.37;52.04;95577.28;5071407;28;19928;-74
2022/10/20 11:55:04;;;;;;;;;;;;;;;17.66;51.19;95569.00;5071161;28;20491;-72
2022/10/20 11:57:30;;;;;;;;;;;;;;;17.74;51.00;95565.88;5067921;28;19929;-73
2022/10/20 12:00:14;;;;;;;;;;;;;;;17.59;50.46;95568.44;5067360;28;20493;-73
2022/10/20 12:02:53;;;;;;;;;;;;;;;17.67;50.84;95565.34;5069135;28;19928;-73
2022/10/20 12:05:26;;;;;;;;;;;;;;;17.90;50.42;95568.63;5065013;28;20682;-74
2022/10/20 12:08:07;;;;;;;;;;;;;;;18.08;49.42;95576.03;5064823;28;19940;-73
2022/10/20 12:11:17;;;;;;;;;;;;;;;18.50;47.77;95567.13;5068724;28;19935;-74
2022/10/20 12:13:43;;;;;;;;;;;;;;;18.71;47.39;95567.16;5062062;28;19931;-73
2022/10/20 12:16:10;;;;;;;;;;;;;;;18.70;46.64;95568.22;5063122;28;19928;-73
2022/10/20 12:18:37;;;;;;;;;;;;;;;18.93;45.94;95558.22;5062384;28;19955;-73
2022/10/20 12:21:05;;;;;;;;;;;;;;;19.38;44.97;95572.38;5061323;28;19971;-72
2022/10/20 12:23:44;;;;;;;;;;;;;;;19.01;45.21;95562.94;5063971;28;20712;-73
2022/10/20 12:26:35;;;;;;;;;;;;;;;19.07;44.69;95564.53;5063051;28;19964;-73
2022/10/20 12:29:44;;;;;;;;;;;;;;;19.60;43.69;95572.06;5059054;28;21200;-74
2022/10/20 12:32:20;;;;;;;;;;;;;;;20.37;41.63;95566.41;5055411;28;19928;-74
2022/10/20 12:34:48;;;;;;;;;;;;;;;20.29;40.68;95562.47;5058196;28;20023;-69
2022/10/20 12:37:14;;;;;;;;;;;;;;;20.67;39.77;95568.09;5059635;28;19928;-74
2022/10/20 12:39:42;;;;;;;;;;;;;;;21.09;38.72;95566.66;5064431;28;19990;-73
2022/10/20 12:42:18;;;;;;;;;;;;;;;21.57;37.09;95568.56;5060775;28;19999;-74
2022/10/20 12:44:45;;;;;;;;;;;;;;;21.94;36.89;95567.84;5062163;28;19983;-74
2022/10/20 12:47:28;;;;;;;;;;;;;;;21.83;36.43;95565.63;5059696;28;19939;-73
2022/10/20 12:49:57;;;;;;;;;;;;;;;22.59;35.12;95571.75;5064126;28;19931;-74
2022/10/20 12:52:29;;;;;;;;;;;;;;;23.42;34.41;95566.66;5059378;28;19956;-73
2022/10/20 12:55:01;;;;;;;;;;;;;;;23.41;33.10;95575.75;5059497;28;20037;-73
2022/10/20 12:57:40;;;;;;;;;;;;;;;24.03;32.35;95574.56;5057118;28;19932;-73
2022/10/20 13:00:27;;;;;;;;;;;;;;;25.18;30.28;95575.13;5056475;28;19924;-73